sensor_id;sensor_type;location;lat;lon;timestamp;P1;durP1;ratioP1;P2;durP2;ratioP2
60038;SDS011;45916;52.734;6.544;2022-07-23T00:00:32;9.68;;;6.07;;
60038;SDS011;45916;52.734;6.544;2022-07-23T00:02:59;8.40;;;5.20;;
60038;SDS011;45916;52.734;6.544;2022-07-23T00:05:24;10.10;;;6.45;;
60038;SDS011;45916;52.734;6.544;2022-07-23T00:07:50;9.98;;;6.18;;
60038;SDS011;45916;52.734;6.544;2022-07-23T00:10:16;9.82;;;6.40;;
60038;SDS011;45916;52.734;6.544;2022-07-23T00:12:41;9.25;;;5.97;;
60038;SDS011;45916;52.734;6.544;2022-07-23T00:15:07;9.85;;;7.53;;
60038;SDS011;45916;52.734;6.544;2022-07-23T00:17:34;10.23;;;6.80;;
60038;SDS011;45916;52.734;6.544;2022-07-23T00:20:00;10.30;;;6.80;;
60038;SDS011;45916;52.734;6.544;2022-07-23T00:22:26;11.63;;;8.20;;
60038;SDS011;45916;52.734;6.544;2022-07-23T00:24:52;9.48;;;6.93;;
60038;SDS011;45916;52.734;6.544;2022-07-23T00:27:18;8.73;;;6.20;;
60038;SDS011;45916;52.734;6.544;2022-07-23T00:29:44;8.68;;;5.53;;
60038;SDS011;45916;52.734;6.544;2022-07-23T00:32:09;9.60;;;6.07;;
60038;SDS011;45916;52.734;6.544;2022-07-23T00:34:35;10.30;;;6.80;;
60038;SDS011;45916;52.734;6.544;2022-07-23T00:37:01;10.82;;;6.57;;
60038;SDS011;45916;52.734;6.544;2022-07-23T00:39:26;12.20;;;8.30;;
60038;SDS011;45916;52.734;6.544;2022-07-23T00:41:52;11.95;;;7.82;;
60038;SDS011;45916;52.734;6.544;2022-07-23T00:46:52;9.70;;;5.95;;
60038;SDS011;45916;52.734;6.544;2022-07-23T00:49:22;8.93;;;4.85;;
60038;SDS011;45916;52.734;6.544;2022-07-23T00:51:53;9.75;;;5.10;;
60038;SDS011;45916;52.734;6.544;2022-07-23T00:54:21;7.50;;;5.25;;
60038;SDS011;45916;52.734;6.544;2022-07-23T00:59:13;10.15;;;6.57;;
60038;SDS011;45916;52.734;6.544;2022-07-23T01:01:40;9.82;;;6.03;;
60038;SDS011;45916;52.734;6.544;2022-07-23T01:04:06;9.80;;;6.38;;
60038;SDS011;45916;52.734;6.544;2022-07-23T01:06:36;10.38;;;6.40;;
60038;SDS011;45916;52.734;6.544;2022-07-23T01:09:03;8.27;;;5.55;;
60038;SDS011;45916;52.734;6.544;2022-07-23T01:11:31;8.93;;;6.03;;
60038;SDS011;45916;52.734;6.544;2022-07-23T01:16:32;9.05;;;4.93;;
60038;SDS011;45916;52.734;6.544;2022-07-23T01:18:57;11.98;;;6.45;;
60038;SDS011;45916;52.734;6.544;2022-07-23T01:21:23;8.40;;;6.10;;
60038;SDS011;45916;52.734;6.544;2022-07-23T01:23:49;12.00;;;7.07;;
60038;SDS011;45916;52.734;6.544;2022-07-23T01:26:15;12.52;;;6.82;;
60038;SDS011;45916;52.734;6.544;2022-07-23T01:28:42;10.30;;;5.68;;
60038;SDS011;45916;52.734;6.544;2022-07-23T01:31:08;7.30;;;3.67;;
60038;SDS011;45916;52.734;6.544;2022-07-23T01:33:33;8.05;;;4.50;;
60038;SDS011;45916;52.734;6.544;2022-07-23T01:35:59;9.93;;;5.18;;
60038;SDS011;45916;52.734;6.544;2022-07-23T01:38:25;8.65;;;5.38;;
60038;SDS011;45916;52.734;6.544;2022-07-23T01:40:50;7.00;;;4.85;;
60038;SDS011;45916;52.734;6.544;2022-07-23T01:43:16;7.95;;;4.55;;
60038;SDS011;45916;52.734;6.544;2022-07-23T01:45:42;8.88;;;4.88;;
60038;SDS011;45916;52.734;6.544;2022-07-23T01:48:09;7.88;;;5.15;;
60038;SDS011;45916;52.734;6.544;2022-07-23T01:50:35;7.47;;;4.43;;
60038;SDS011;45916;52.734;6.544;2022-07-23T01:53:00;5.57;;;2.92;;
60038;SDS011;45916;52.734;6.544;2022-07-23T01:55:29;7.88;;;2.88;;
60038;SDS011;45916;52.734;6.544;2022-07-23T02:00:20;8.90;;;5.35;;
60038;SDS011;45916;52.734;6.544;2022-07-23T02:02:46;8.98;;;4.95;;
60038;SDS011;45916;52.734;6.544;2022-07-23T02:05:11;64.72;;;7.13;;
60038;SDS011;45916;52.734;6.544;2022-07-23T02:07:37;5.65;;;2.50;;
60038;SDS011;45916;52.734;6.544;2022-07-23T02:10:03;7.05;;;4.20;;
60038;SDS011;45916;52.734;6.544;2022-07-23T02:12:29;7.97;;;5.47;;
60038;SDS011;45916;52.734;6.544;2022-07-23T02:14:55;9.32;;;5.70;;
60038;SDS011;45916;52.734;6.544;2022-07-23T02:17:20;10.18;;;6.32;;
60038;SDS011;45916;52.734;6.544;2022-07-23T02:19:46;10.07;;;5.88;;
60038;SDS011;45916;52.734;6.544;2022-07-23T02:22:11;9.32;;;6.30;;
60038;SDS011;45916;52.734;6.544;2022-07-23T02:24:37;9.13;;;5.13;;
60038;SDS011;45916;52.734;6.544;2022-07-23T02:27:03;7.80;;;4.65;;
60038;SDS011;45916;52.734;6.544;2022-07-23T02:29:28;9.35;;;5.03;;
60038;SDS011;45916;52.734;6.544;2022-07-23T02:31:54;11.45;;;6.38;;
60038;SDS011;45916;52.734;6.544;2022-07-23T02:34:20;9.10;;;6.13;;
60038;SDS011;45916;52.734;6.544;2022-07-23T02:36:45;11.93;;;7.88;;
60038;SDS011;45916;52.734;6.544;2022-07-23T02:39:11;11.45;;;6.38;;
60038;SDS011;45916;52.734;6.544;2022-07-23T02:41:36;10.23;;;7.15;;
60038;SDS011;45916;52.734;6.544;2022-07-23T02:44:02;9.32;;;5.95;;
60038;SDS011;45916;52.734;6.544;2022-07-23T02:46:28;7.25;;;4.82;;
60038;SDS011;45916;52.734;6.544;2022-07-23T02:48:54;5.93;;;2.22;;
60038;SDS011;45916;52.734;6.544;2022-07-23T02:51:19;5.40;;;2.58;;
60038;SDS011;45916;52.734;6.544;2022-07-23T02:53:45;4.65;;;2.00;;
60038;SDS011;45916;52.734;6.544;2022-07-23T02:56:11;8.70;;;5.50;;
60038;SDS011;45916;52.734;6.544;2022-07-23T02:58:36;29.50;;;3.30;;
60038;SDS011;45916;52.734;6.544;2022-07-23T03:01:02;5.20;;;2.05;;
60038;SDS011;45916;52.734;6.544;2022-07-23T03:03:28;8.38;;;5.20;;
60038;SDS011;45916;52.734;6.544;2022-07-23T03:05:54;10.15;;;6.72;;
60038;SDS011;45916;52.734;6.544;2022-07-23T03:08:19;10.18;;;6.45;;
60038;SDS011;45916;52.734;6.544;2022-07-23T03:10:45;6.07;;;2.97;;
60038;SDS011;45916;52.734;6.544;2022-07-23T03:13:11;7.18;;;3.40;;
60038;SDS011;45916;52.734;6.544;2022-07-23T03:15:37;10.98;;;6.40;;
60038;SDS011;45916;52.734;6.544;2022-07-23T03:18:02;8.80;;;4.93;;
60038;SDS011;45916;52.734;6.544;2022-07-23T03:20:28;10.38;;;5.05;;
60038;SDS011;45916;52.734;6.544;2022-07-23T03:22:54;13.25;;;4.63;;
60038;SDS011;45916;52.734;6.544;2022-07-23T03:25:19;6.07;;;3.95;;
60038;SDS011;45916;52.734;6.544;2022-07-23T03:27:45;5.47;;;2.55;;
60038;SDS011;45916;52.734;6.544;2022-07-23T03:30:11;6.90;;;4.45;;
60038;SDS011;45916;52.734;6.544;2022-07-23T03:32:37;8.73;;;4.80;;
60038;SDS011;45916;52.734;6.544;2022-07-23T03:35:03;8.07;;;4.18;;
60038;SDS011;45916;52.734;6.544;2022-07-23T03:37:29;8.35;;;5.50;;
60038;SDS011;45916;52.734;6.544;2022-07-23T03:39:54;13.55;;;5.75;;
60038;SDS011;45916;52.734;6.544;2022-07-23T03:42:20;18.00;;;7.43;;
60038;SDS011;45916;52.734;6.544;2022-07-23T03:44:46;75.40;;;8.68;;
60038;SDS011;45916;52.734;6.544;2022-07-23T03:47:11;8.35;;;4.47;;
60038;SDS011;45916;52.734;6.544;2022-07-23T03:49:37;9.63;;;5.65;;
60038;SDS011;45916;52.734;6.544;2022-07-23T03:52:03;8.82;;;4.63;;
60038;SDS011;45916;52.734;6.544;2022-07-23T03:54:29;6.60;;;3.22;;
60038;SDS011;45916;52.734;6.544;2022-07-23T03:56:55;6.10;;;3.65;;
60038;SDS011;45916;52.734;6.544;2022-07-23T03:59:20;6.97;;;2.75;;
60038;SDS011;45916;52.734;6.544;2022-07-23T04:01:47;4.47;;;1.30;;
60038;SDS011;45916;52.734;6.544;2022-07-23T04:04:12;2.65;;;0.77;;
60038;SDS011;45916;52.734;6.544;2022-07-23T04:06:38;7.78;;;4.97;;
60038;SDS011;45916;52.734;6.544;2022-07-23T04:09:04;7.35;;;4.28;;
60038;SDS011;45916;52.734;6.544;2022-07-23T04:11:29;8.00;;;4.53;;
60038;SDS011;45916;52.734;6.544;2022-07-23T04:13:55;12.60;;;4.57;;
60038;SDS011;45916;52.734;6.544;2022-07-23T04:16:21;63.72;;;8.13;;
60038;SDS011;45916;52.734;6.544;2022-07-23T04:18:46;9.27;;;2.58;;
60038;SDS011;45916;52.734;6.544;2022-07-23T04:21:12;10.80;;;2.10;;
60038;SDS011;45916;52.734;6.544;2022-07-23T04:23:38;4.57;;;1.50;;
60038;SDS011;45916;52.734;6.544;2022-07-23T04:26:03;6.25;;;3.85;;
60038;SDS011;45916;52.734;6.544;2022-07-23T04:28:29;6.97;;;3.95;;
60038;SDS011;45916;52.734;6.544;2022-07-23T04:30:58;4.88;;;2.15;;
60038;SDS011;45916;52.734;6.544;2022-07-23T04:33:24;8.38;;;5.68;;
60038;SDS011;45916;52.734;6.544;2022-07-23T04:35:50;8.80;;;5.60;;
60038;SDS011;45916;52.734;6.544;2022-07-23T04:38:15;9.80;;;6.50;;
60038;SDS011;45916;52.734;6.544;2022-07-23T04:40:41;12.80;;;7.45;;
60038;SDS011;45916;52.734;6.544;2022-07-23T04:43:07;7.97;;;5.60;;
60038;SDS011;45916;52.734;6.544;2022-07-23T04:45:32;7.47;;;3.95;;
60038;SDS011;45916;52.734;6.544;2022-07-23T04:47:58;11.38;;;6.30;;
60038;SDS011;45916;52.734;6.544;2022-07-23T04:50:24;11.57;;;6.72;;
60038;SDS011;45916;52.734;6.544;2022-07-23T04:52:50;10.95;;;7.35;;
60038;SDS011;45916;52.734;6.544;2022-07-23T04:55:15;11.43;;;8.57;;
60038;SDS011;45916;52.734;6.544;2022-07-23T04:57:41;14.52;;;10.32;;
60038;SDS011;45916;52.734;6.544;2022-07-23T05:00:07;16.30;;;13.65;;
60038;SDS011;45916;52.734;6.544;2022-07-23T05:02:34;15.82;;;14.15;;
60038;SDS011;45916;52.734;6.544;2022-07-23T05:04:59;16.05;;;13.50;;
60038;SDS011;45916;52.734;6.544;2022-07-23T05:07:25;18.75;;;12.15;;
60038;SDS011;45916;52.734;6.544;2022-07-23T05:09:50;17.30;;;8.57;;
60038;SDS011;45916;52.734;6.544;2022-07-23T05:12:16;13.02;;;8.52;;
60038;SDS011;45916;52.734;6.544;2022-07-23T05:14:42;9.30;;;6.68;;
60038;SDS011;45916;52.734;6.544;2022-07-23T05:17:08;11.80;;;6.20;;
60038;SDS011;45916;52.734;6.544;2022-07-23T05:19:33;11.82;;;5.30;;
60038;SDS011;45916;52.734;6.544;2022-07-23T05:21:59;12.88;;;4.90;;
60038;SDS011;45916;52.734;6.544;2022-07-23T05:24:25;10.23;;;4.10;;
60038;SDS011;45916;52.734;6.544;2022-07-23T05:26:51;10.60;;;3.75;;
60038;SDS011;45916;52.734;6.544;2022-07-23T05:29:17;6.10;;;3.78;;
60038;SDS011;45916;52.734;6.544;2022-07-23T05:31:43;8.63;;;4.20;;
60038;SDS011;45916;52.734;6.544;2022-07-23T05:34:09;6.07;;;3.63;;
60038;SDS011;45916;52.734;6.544;2022-07-23T05:36:34;5.97;;;3.47;;
60038;SDS011;45916;52.734;6.544;2022-07-23T05:39:00;7.53;;;4.20;;
60038;SDS011;45916;52.734;6.544;2022-07-23T05:41:26;9.90;;;3.83;;
60038;SDS011;45916;52.734;6.544;2022-07-23T05:43:51;6.60;;;3.78;;
60038;SDS011;45916;52.734;6.544;2022-07-23T05:46:17;5.60;;;3.58;;
60038;SDS011;45916;52.734;6.544;2022-07-23T05:48:43;7.70;;;3.60;;
60038;SDS011;45916;52.734;6.544;2022-07-23T05:51:11;6.75;;;3.75;;
60038;SDS011;45916;52.734;6.544;2022-07-23T05:53:36;5.68;;;3.30;;
60038;SDS011;45916;52.734;6.544;2022-07-23T05:56:03;5.95;;;3.58;;
60038;SDS011;45916;52.734;6.544;2022-07-23T05:58:29;8.27;;;3.80;;
60038;SDS011;45916;52.734;6.544;2022-07-23T06:00:55;7.88;;;4.18;;
60038;SDS011;45916;52.734;6.544;2022-07-23T06:03:20;8.35;;;3.88;;
60038;SDS011;45916;52.734;6.544;2022-07-23T06:05:46;6.65;;;3.22;;
60038;SDS011;45916;52.734;6.544;2022-07-23T06:08:12;8.50;;;3.50;;
60038;SDS011;45916;52.734;6.544;2022-07-23T06:10:38;5.53;;;2.58;;
60038;SDS011;45916;52.734;6.544;2022-07-23T06:13:03;6.25;;;2.78;;
60038;SDS011;45916;52.734;6.544;2022-07-23T06:15:32;7.35;;;3.13;;
60038;SDS011;45916;52.734;6.544;2022-07-23T06:17:58;8.98;;;3.13;;
60038;SDS011;45916;52.734;6.544;2022-07-23T06:20:23;6.07;;;2.70;;
60038;SDS011;45916;52.734;6.544;2022-07-23T06:22:49;5.95;;;2.75;;
60038;SDS011;45916;52.734;6.544;2022-07-23T06:25:15;7.40;;;2.22;;
60038;SDS011;45916;52.734;6.544;2022-07-23T06:27:41;7.90;;;2.30;;
60038;SDS011;45916;52.734;6.544;2022-07-23T06:30:07;4.80;;;2.13;;
60038;SDS011;45916;52.734;6.544;2022-07-23T06:32:33;6.07;;;2.43;;
60038;SDS011;45916;52.734;6.544;2022-07-23T06:34:59;5.95;;;2.08;;
60038;SDS011;45916;52.734;6.544;2022-07-23T06:37:25;5.30;;;2.15;;
60038;SDS011;45916;52.734;6.544;2022-07-23T06:39:50;6.70;;;1.70;;
60038;SDS011;45916;52.734;6.544;2022-07-23T06:42:16;7.45;;;2.15;;
60038;SDS011;45916;52.734;6.544;2022-07-23T06:44:42;4.65;;;1.67;;
60038;SDS011;45916;52.734;6.544;2022-07-23T06:47:07;5.18;;;1.83;;
60038;SDS011;45916;52.734;6.544;2022-07-23T06:49:33;4.10;;;1.55;;
60038;SDS011;45916;52.734;6.544;2022-07-23T06:51:59;5.38;;;1.83;;
60038;SDS011;45916;52.734;6.544;2022-07-23T06:54:24;5.28;;;1.55;;
60038;SDS011;45916;52.734;6.544;2022-07-23T06:56:50;5.03;;;1.40;;
60038;SDS011;45916;52.734;6.544;2022-07-23T06:59:16;4.85;;;1.50;;
60038;SDS011;45916;52.734;6.544;2022-07-23T07:01:41;5.05;;;1.23;;
60038;SDS011;45916;52.734;6.544;2022-07-23T07:04:07;5.05;;;2.10;;
60038;SDS011;45916;52.734;6.544;2022-07-23T07:06:33;4.82;;;1.98;;
60038;SDS011;45916;52.734;6.544;2022-07-23T07:08:59;3.45;;;1.27;;
60038;SDS011;45916;52.734;6.544;2022-07-23T07:11:25;5.10;;;1.30;;
60038;SDS011;45916;52.734;6.544;2022-07-23T07:13:51;5.68;;;1.60;;
60038;SDS011;45916;52.734;6.544;2022-07-23T07:16:17;5.57;;;1.13;;
60038;SDS011;45916;52.734;6.544;2022-07-23T07:18:42;5.35;;;1.30;;
60038;SDS011;45916;52.734;6.544;2022-07-23T07:21:08;3.58;;;1.27;;
60038;SDS011;45916;52.734;6.544;2022-07-23T07:23:34;6.25;;;1.52;;
60038;SDS011;45916;52.734;6.544;2022-07-23T07:25:59;4.50;;;1.70;;
60038;SDS011;45916;52.734;6.544;2022-07-23T07:28:25;4.25;;;1.35;;
60038;SDS011;45916;52.734;6.544;2022-07-23T07:30:51;3.70;;;0.90;;
60038;SDS011;45916;52.734;6.544;2022-07-23T07:33:16;6.07;;;1.87;;
60038;SDS011;45916;52.734;6.544;2022-07-23T07:35:42;7.63;;;1.30;;
60038;SDS011;45916;52.734;6.544;2022-07-23T07:38:08;4.57;;;1.10;;
60038;SDS011;45916;52.734;6.544;2022-07-23T07:40:33;3.37;;;0.97;;
60038;SDS011;45916;52.734;6.544;2022-07-23T07:42:59;5.30;;;1.05;;
60038;SDS011;45916;52.734;6.544;2022-07-23T07:45:26;3.20;;;0.80;;
60038;SDS011;45916;52.734;6.544;2022-07-23T07:48:01;7.07;;;1.03;;
60038;SDS011;45916;52.734;6.544;2022-07-23T07:50:27;3.10;;;1.05;;
60038;SDS011;45916;52.734;6.544;2022-07-23T07:52:53;2.27;;;0.80;;
60038;SDS011;45916;52.734;6.544;2022-07-23T07:55:18;4.47;;;0.93;;
60038;SDS011;45916;52.734;6.544;2022-07-23T07:57:44;2.13;;;0.63;;
60038;SDS011;45916;52.734;6.544;2022-07-23T08:00:10;4.53;;;0.70;;
60038;SDS011;45916;52.734;6.544;2022-07-23T08:05:05;3.67;;;0.80;;
60038;SDS011;45916;52.734;6.544;2022-07-23T08:07:31;3.58;;;0.85;;
60038;SDS011;45916;52.734;6.544;2022-07-23T08:09:57;3.65;;;0.85;;
60038;SDS011;45916;52.734;6.544;2022-07-23T08:12:22;4.40;;;0.90;;
60038;SDS011;45916;52.734;6.544;2022-07-23T08:14:48;3.83;;;0.88;;
60038;SDS011;45916;52.734;6.544;2022-07-23T08:17:14;4.72;;;1.48;;
60038;SDS011;45916;52.734;6.544;2022-07-23T08:19:39;2.88;;;0.90;;
60038;SDS011;45916;52.734;6.544;2022-07-23T08:22:05;3.63;;;1.40;;
60038;SDS011;45916;52.734;6.544;2022-07-23T08:24:31;3.55;;;1.20;;
60038;SDS011;45916;52.734;6.544;2022-07-23T08:26:56;2.88;;;0.85;;
60038;SDS011;45916;52.734;6.544;2022-07-23T08:29:22;3.72;;;0.77;;
60038;SDS011;45916;52.734;6.544;2022-07-23T08:31:47;4.50;;;1.00;;
60038;SDS011;45916;52.734;6.544;2022-07-23T08:34:13;3.53;;;0.80;;
60038;SDS011;45916;52.734;6.544;2022-07-23T08:36:39;1.95;;;0.60;;
60038;SDS011;45916;52.734;6.544;2022-07-23T08:39:04;2.20;;;0.77;;
60038;SDS011;45916;52.734;6.544;2022-07-23T08:41:30;3.85;;;0.80;;
60038;SDS011;45916;52.734;6.544;2022-07-23T08:43:56;3.85;;;1.17;;
60038;SDS011;45916;52.734;6.544;2022-07-23T08:48:49;2.65;;;0.68;;
60038;SDS011;45916;52.734;6.544;2022-07-23T08:51:15;2.33;;;0.60;;
60038;SDS011;45916;52.734;6.544;2022-07-23T08:53:42;3.77;;;0.70;;
60038;SDS011;45916;52.734;6.544;2022-07-23T08:56:09;2.42;;;0.60;;
60038;SDS011;45916;52.734;6.544;2022-07-23T08:58:34;3.17;;;0.70;;
60038;SDS011;45916;52.734;6.544;2022-07-23T09:01:01;2.92;;;0.60;;
60038;SDS011;45916;52.734;6.544;2022-07-23T09:03:28;2.10;;;0.90;;
60038;SDS011;45916;52.734;6.544;2022-07-23T09:05:59;4.07;;;0.75;;
60038;SDS011;45916;52.734;6.544;2022-07-23T09:08:34;2.88;;;0.70;;
60038;SDS011;45916;52.734;6.544;2022-07-23T09:11:04;2.63;;;0.80;;
60038;SDS011;45916;52.734;6.544;2022-07-23T09:16:11;3.22;;;1.05;;
60038;SDS011;45916;52.734;6.544;2022-07-23T09:18:51;3.17;;;0.80;;
60038;SDS011;45916;52.734;6.544;2022-07-23T09:21:25;3.65;;;0.73;;
60038;SDS011;45916;52.734;6.544;2022-07-23T09:24:00;3.00;;;0.60;;
60038;SDS011;45916;52.734;6.544;2022-07-23T09:29:11;4.03;;;0.70;;
60038;SDS011;45916;52.734;6.544;2022-07-23T09:34:29;3.35;;;1.15;;
60038;SDS011;45916;52.734;6.544;2022-07-23T09:37:17;4.97;;;1.67;;
60038;SDS011;45916;52.734;6.544;2022-07-23T09:39:44;4.20;;;1.30;;
60038;SDS011;45916;52.734;6.544;2022-07-23T09:44:45;3.80;;;1.00;;
60038;SDS011;45916;52.734;6.544;2022-07-23T09:47:18;3.67;;;1.10;;
60038;SDS011;45916;52.734;6.544;2022-07-23T09:52:30;4.70;;;0.98;;
60038;SDS011;45916;52.734;6.544;2022-07-23T09:55:01;1.70;;;0.50;;
60038;SDS011;45916;52.734;6.544;2022-07-23T09:57:28;2.72;;;0.85;;
60038;SDS011;45916;52.734;6.544;2022-07-23T09:59:57;3.25;;;0.95;;
60038;SDS011;45916;52.734;6.544;2022-07-23T10:02:26;2.13;;;0.65;;
60038;SDS011;45916;52.734;6.544;2022-07-23T10:04:53;2.17;;;0.70;;
60038;SDS011;45916;52.734;6.544;2022-07-23T10:07:21;1.90;;;0.88;;
60038;SDS011;45916;52.734;6.544;2022-07-23T10:09:48;4.43;;;0.70;;
60038;SDS011;45916;52.734;6.544;2022-07-23T10:12:17;3.45;;;0.85;;
60038;SDS011;45916;52.734;6.544;2022-07-23T10:15:03;2.40;;;0.80;;
60038;SDS011;45916;52.734;6.544;2022-07-23T10:17:31;1.98;;;0.70;;
60038;SDS011;45916;52.734;6.544;2022-07-23T10:19:57;4.05;;;0.98;;
60038;SDS011;45916;52.734;6.544;2022-07-23T10:22:29;2.15;;;0.80;;
60038;SDS011;45916;52.734;6.544;2022-07-23T10:30:09;2.50;;;0.90;;
60038;SDS011;45916;52.734;6.544;2022-07-23T10:39:04;3.88;;;0.95;;
60038;SDS011;45916;52.734;6.544;2022-07-23T10:41:40;3.30;;;1.20;;
60038;SDS011;45916;52.734;6.544;2022-07-23T10:52:42;3.45;;;0.93;;
60038;SDS011;45916;52.734;6.544;2022-07-23T10:58:00;3.58;;;1.00;;
60038;SDS011;45916;52.734;6.544;2022-07-23T11:00:28;3.83;;;1.35;;
60038;SDS011;45916;52.734;6.544;2022-07-23T11:02:55;4.03;;;1.10;;
60038;SDS011;45916;52.734;6.544;2022-07-23T11:05:24;2.95;;;1.08;;
60038;SDS011;45916;52.734;6.544;2022-07-23T11:32:00;3.58;;;1.52;;
60038;SDS011;45916;52.734;6.544;2022-07-23T11:36:59;3.45;;;1.50;;
60038;SDS011;45916;52.734;6.544;2022-07-23T11:39:27;4.70;;;2.10;;
60038;SDS011;45916;52.734;6.544;2022-07-23T11:41:55;3.55;;;1.42;;
60038;SDS011;45916;52.734;6.544;2022-07-23T11:44:32;3.25;;;1.27;;
60038;SDS011;45916;52.734;6.544;2022-07-23T11:47:07;4.15;;;1.30;;
60038;SDS011;45916;52.734;6.544;2022-07-23T11:49:35;3.90;;;1.60;;
60038;SDS011;45916;52.734;6.544;2022-07-23T11:52:13;2.92;;;1.30;;
60038;SDS011;45916;52.734;6.544;2022-07-23T11:57:19;5.35;;;1.50;;
60038;SDS011;45916;52.734;6.544;2022-07-23T11:59:50;3.53;;;1.55;;
60038;SDS011;45916;52.734;6.544;2022-07-23T12:02:19;3.58;;;1.52;;
60038;SDS011;45916;52.734;6.544;2022-07-23T12:04:47;6.70;;;2.90;;
60038;SDS011;45916;52.734;6.544;2022-07-23T12:07:34;4.45;;;1.90;;
60038;SDS011;45916;52.734;6.544;2022-07-23T12:10:08;4.35;;;1.88;;
60038;SDS011;45916;52.734;6.544;2022-07-23T12:12:47;5.45;;;1.90;;
60038;SDS011;45916;52.734;6.544;2022-07-23T12:15:18;4.63;;;2.08;;
60038;SDS011;45916;52.734;6.544;2022-07-23T12:17:47;4.15;;;1.92;;
60038;SDS011;45916;52.734;6.544;2022-07-23T12:20:16;4.43;;;2.10;;
60038;SDS011;45916;52.734;6.544;2022-07-23T12:22:44;4.25;;;2.10;;
60038;SDS011;45916;52.734;6.544;2022-07-23T12:25:16;3.85;;;2.05;;
60038;SDS011;45916;52.734;6.544;2022-07-23T12:27:44;4.35;;;2.20;;
60038;SDS011;45916;52.734;6.544;2022-07-23T12:30:24;5.32;;;2.08;;
60038;SDS011;45916;52.734;6.544;2022-07-23T12:32:56;3.83;;;1.85;;
60038;SDS011;45916;52.734;6.544;2022-07-23T12:35:28;5.10;;;2.22;;
60038;SDS011;45916;52.734;6.544;2022-07-23T12:38:00;5.45;;;2.45;;
60038;SDS011;45916;52.734;6.544;2022-07-23T12:40:29;4.72;;;2.30;;
60038;SDS011;45916;52.734;6.544;2022-07-23T12:42:59;4.65;;;2.33;;
60038;SDS011;45916;52.734;6.544;2022-07-23T12:45:41;6.35;;;2.50;;
60038;SDS011;45916;52.734;6.544;2022-07-23T12:48:26;3.90;;;2.05;;
60038;SDS011;45916;52.734;6.544;2022-07-23T12:50:54;4.10;;;1.80;;
60038;SDS011;45916;52.734;6.544;2022-07-23T13:06:50;3.83;;;2.00;;
60038;SDS011;45916;52.734;6.544;2022-07-23T13:09:14;6.60;;;2.30;;
60038;SDS011;45916;52.734;6.544;2022-07-23T13:11:42;4.40;;;2.35;;
60038;SDS011;45916;52.734;6.544;2022-07-23T13:14:10;6.32;;;2.60;;
60038;SDS011;45916;52.734;6.544;2022-07-23T13:16:36;3.78;;;1.98;;
60038;SDS011;45916;52.734;6.544;2022-07-23T13:19:02;4.55;;;2.45;;
60038;SDS011;45916;52.734;6.544;2022-07-23T13:21:28;5.38;;;2.60;;
60038;SDS011;45916;52.734;6.544;2022-07-23T13:23:54;4.97;;;2.63;;
60038;SDS011;45916;52.734;6.544;2022-07-23T13:26:21;4.25;;;2.28;;
60038;SDS011;45916;52.734;6.544;2022-07-23T13:28:46;4.32;;;1.80;;
60038;SDS011;45916;52.734;6.544;2022-07-23T13:31:13;4.13;;;2.15;;
60038;SDS011;45916;52.734;6.544;2022-07-23T13:33:39;5.65;;;2.33;;
60038;SDS011;45916;52.734;6.544;2022-07-23T13:36:06;5.43;;;2.45;;
60038;SDS011;45916;52.734;6.544;2022-07-23T13:38:32;4.55;;;2.50;;
60038;SDS011;45916;52.734;6.544;2022-07-23T13:40:58;5.82;;;2.28;;
60038;SDS011;45916;52.734;6.544;2022-07-23T13:43:24;3.95;;;2.03;;
60038;SDS011;45916;52.734;6.544;2022-07-23T13:45:51;4.20;;;2.38;;
60038;SDS011;45916;52.734;6.544;2022-07-23T13:48:17;5.47;;;2.50;;
60038;SDS011;45916;52.734;6.544;2022-07-23T13:50:44;4.60;;;2.47;;
60038;SDS011;45916;52.734;6.544;2022-07-23T13:53:13;4.70;;;2.08;;
60038;SDS011;45916;52.734;6.544;2022-07-23T13:55:41;4.68;;;2.55;;
60038;SDS011;45916;52.734;6.544;2022-07-23T13:58:07;5.32;;;2.10;;
60038;SDS011;45916;52.734;6.544;2022-07-23T14:00:35;4.07;;;2.17;;
60038;SDS011;45916;52.734;6.544;2022-07-23T14:03:07;4.65;;;2.47;;
60038;SDS011;45916;52.734;6.544;2022-07-23T14:05:33;5.97;;;2.70;;
60038;SDS011;45916;52.734;6.544;2022-07-23T14:07:59;5.05;;;2.40;;
60038;SDS011;45916;52.734;6.544;2022-07-23T14:10:25;4.55;;;2.10;;
60038;SDS011;45916;52.734;6.544;2022-07-23T14:12:51;7.82;;;2.95;;
60038;SDS011;45916;52.734;6.544;2022-07-23T14:15:22;5.75;;;2.30;;
60038;SDS011;45916;52.734;6.544;2022-07-23T14:17:49;4.40;;;2.17;;
60038;SDS011;45916;52.734;6.544;2022-07-23T14:20:15;4.13;;;2.35;;
60038;SDS011;45916;52.734;6.544;2022-07-23T14:22:41;4.82;;;2.25;;
60038;SDS011;45916;52.734;6.544;2022-07-23T14:25:07;4.70;;;1.88;;
60038;SDS011;45916;52.734;6.544;2022-07-23T14:27:33;3.72;;;2.00;;
60038;SDS011;45916;52.734;6.544;2022-07-23T14:30:00;5.68;;;2.75;;
60038;SDS011;45916;52.734;6.544;2022-07-23T14:32:26;3.38;;;1.73;;
60038;SDS011;45916;52.734;6.544;2022-07-23T14:34:52;4.15;;;2.13;;
60038;SDS011;45916;52.734;6.544;2022-07-23T14:37:17;3.80;;;2.00;;
60038;SDS011;45916;52.734;6.544;2022-07-23T14:39:44;4.75;;;2.10;;
60038;SDS011;45916;52.734;6.544;2022-07-23T14:42:10;4.90;;;2.50;;
60038;SDS011;45916;52.734;6.544;2022-07-23T14:44:36;4.93;;;2.40;;
60038;SDS011;45916;52.734;6.544;2022-07-23T14:47:03;4.57;;;1.95;;
60038;SDS011;45916;52.734;6.544;2022-07-23T14:49:30;4.50;;;2.25;;
60038;SDS011;45916;52.734;6.544;2022-07-23T14:51:57;4.45;;;2.53;;
60038;SDS011;45916;52.734;6.544;2022-07-23T14:54:23;5.15;;;2.45;;
60038;SDS011;45916;52.734;6.544;2022-07-23T14:56:51;5.07;;;2.25;;
60038;SDS011;45916;52.734;6.544;2022-07-23T14:59:20;4.88;;;2.20;;
60038;SDS011;45916;52.734;6.544;2022-07-23T15:01:46;4.18;;;2.08;;
60038;SDS011;45916;52.734;6.544;2022-07-23T15:04:12;6.03;;;3.10;;
60038;SDS011;45916;52.734;6.544;2022-07-23T15:06:38;5.65;;;2.63;;
60038;SDS011;45916;52.734;6.544;2022-07-23T15:09:04;5.30;;;2.40;;
60038;SDS011;45916;52.734;6.544;2022-07-23T15:11:30;4.68;;;2.67;;
60038;SDS011;45916;52.734;6.544;2022-07-23T15:13:59;5.07;;;2.53;;
60038;SDS011;45916;52.734;6.544;2022-07-23T15:16:28;5.38;;;2.50;;
60038;SDS011;45916;52.734;6.544;2022-07-23T15:18:54;4.40;;;2.28;;
60038;SDS011;45916;52.734;6.544;2022-07-23T15:21:20;4.72;;;2.55;;
60038;SDS011;45916;52.734;6.544;2022-07-23T15:23:46;7.15;;;3.13;;
60038;SDS011;45916;52.734;6.544;2022-07-23T15:26:14;5.22;;;2.55;;
60038;SDS011;45916;52.734;6.544;2022-07-23T15:28:40;4.43;;;2.10;;
60038;SDS011;45916;52.734;6.544;2022-07-23T15:31:06;4.57;;;2.58;;
60038;SDS011;45916;52.734;6.544;2022-07-23T15:33:32;5.40;;;2.50;;
60038;SDS011;45916;52.734;6.544;2022-07-23T15:35:58;5.10;;;2.58;;
60038;SDS011;45916;52.734;6.544;2022-07-23T15:38:24;5.38;;;2.67;;
60038;SDS011;45916;52.734;6.544;2022-07-23T15:40:52;10.03;;;3.37;;
60038;SDS011;45916;52.734;6.544;2022-07-23T15:45:45;5.15;;;2.50;;
60038;SDS011;45916;52.734;6.544;2022-07-23T15:48:11;4.72;;;2.65;;
60038;SDS011;45916;52.734;6.544;2022-07-23T15:50:37;5.63;;;2.60;;
60038;SDS011;45916;52.734;6.544;2022-07-23T15:53:03;4.68;;;2.15;;
60038;SDS011;45916;52.734;6.544;2022-07-23T15:55:29;5.45;;;2.30;;
60038;SDS011;45916;52.734;6.544;2022-07-23T15:57:54;4.90;;;2.40;;
60038;SDS011;45916;52.734;6.544;2022-07-23T16:00:20;5.18;;;2.40;;
60038;SDS011;45916;52.734;6.544;2022-07-23T16:02:46;4.50;;;2.40;;
60038;SDS011;45916;52.734;6.544;2022-07-23T16:05:11;4.13;;;2.20;;
60038;SDS011;45916;52.734;6.544;2022-07-23T16:07:37;5.60;;;2.45;;
60038;SDS011;45916;52.734;6.544;2022-07-23T16:10:06;5.82;;;2.45;;
60038;SDS011;45916;52.734;6.544;2022-07-23T16:12:33;5.18;;;2.55;;
60038;SDS011;45916;52.734;6.544;2022-07-23T16:14:59;4.70;;;2.40;;
60038;SDS011;45916;52.734;6.544;2022-07-23T16:17:24;4.75;;;2.60;;
60038;SDS011;45916;52.734;6.544;2022-07-23T16:19:50;5.57;;;2.30;;